sensor_id;sensor_type;location;lat;lon;timestamp;temperature;humidity
11385;DHT22;5747;56.748;13.882;2023-04-06T17:22:12;3.20;99.90
11385;DHT22;5747;56.748;13.882;2023-04-06T17:57:42;1.10;99.90
11385;DHT22;5747;56.748;13.882;2023-04-06T18:00:12;0.90;99.90
11385;DHT22;5747;56.748;13.882;2023-04-06T18:02:42;0.70;99.90
11385;DHT22;5747;56.748;13.882;2023-04-06T18:05:10;0.60;99.90
11385;DHT22;5747;56.748;13.882;2023-04-06T18:07:38;0.50;99.90
11385;DHT22;5747;56.748;13.882;2023-04-06T18:10:08;0.40;99.90
11385;DHT22;5747;56.748;13.882;2023-04-06T18:12:36;0.20;99.90
11385;DHT22;5747;56.748;13.882;2023-04-06T18:15:06;0.10;99.90
11385;DHT22;5747;56.748;13.882;2023-04-06T18:17:34;0.00;99.90
11385;DHT22;5747;56.748;13.882;2023-04-06T18:20:03;-0.10;99.90
11385;DHT22;5747;56.748;13.882;2023-04-06T18:22:31;-0.20;99.90
11385;DHT22;5747;56.748;13.882;2023-04-06T18:25:00;-0.30;99.90
11385;DHT22;5747;56.748;13.882;2023-04-06T18:27:28;-0.40;99.90
11385;DHT22;5747;56.748;13.882;2023-04-06T18:29:56;-0.50;99.90
11385;DHT22;5747;56.748;13.882;2023-04-06T18:32:27;-0.60;99.90
11385;DHT22;5747;56.748;13.882;2023-04-06T18:34:56;-0.80;99.90
11385;DHT22;5747;56.748;13.882;2023-04-06T18:37:25;-0.90;99.90
11385;DHT22;5747;56.748;13.882;2023-04-06T18:43:48;-1.10;99.90
11385;DHT22;5747;56.748;13.882;2023-04-06T18:46:17;-1.20;99.90
11385;DHT22;5747;56.748;13.882;2023-04-06T18:48:46;-1.30;99.90
11385;DHT22;5747;56.748;13.882;2023-04-06T18:51:14;-1.40;99.90
11385;DHT22;5747;56.748;13.882;2023-04-06T18:53:42;-1.40;99.90
11385;DHT22;5747;56.748;13.882;2023-04-06T18:56:14;-1.40;99.90
11385;DHT22;5747;56.748;13.882;2023-04-06T18:58:42;-1.50;99.90
11385;DHT22;5747;56.748;13.882;2023-04-06T19:01:20;-1.60;99.90
11385;DHT22;5747;56.748;13.882;2023-04-06T19:03:48;-1.60;99.90
11385;DHT22;5747;56.748;13.882;2023-04-06T19:06:17;-1.70;99.90
11385;DHT22;5747;56.748;13.882;2023-04-06T19:08:46;-1.80;99.90
11385;DHT22;5747;56.748;13.882;2023-04-06T19:11:14;-1.90;99.90
11385;DHT22;5747;56.748;13.882;2023-04-06T19:13:42;-1.90;99.90
11385;DHT22;5747;56.748;13.882;2023-04-06T19:16:16;-1.90;99.90
11385;DHT22;5747;56.748;13.882;2023-04-06T19:18:45;-1.90;99.90
11385;DHT22;5747;56.748;13.882;2023-04-06T19:21:14;-2.00;99.90
11385;DHT22;5747;56.748;13.882;2023-04-06T19:23:43;-2.10;99.90
11385;DHT22;5747;56.748;13.882;2023-04-06T19:26:12;-2.10;99.90
11385;DHT22;5747;56.748;13.882;2023-04-06T19:28:40;-2.20;99.90
11385;DHT22;5747;56.748;13.882;2023-04-06T19:31:10;-2.30;99.90
11385;DHT22;5747;56.748;13.882;2023-04-06T19:33:40;-2.40;99.90
11385;DHT22;5747;56.748;13.882;2023-04-06T19:36:09;-2.60;99.90
11385;DHT22;5747;56.748;13.882;2023-04-06T19:38:38;-2.70;99.90
11385;DHT22;5747;56.748;13.882;2023-04-06T19:41:07;-2.80;99.90
11385;DHT22;5747;56.748;13.882;2023-04-06T19:43:35;-2.80;99.90
11385;DHT22;5747;56.748;13.882;2023-04-06T19:46:03;-2.90;99.90
11385;DHT22;5747;56.748;13.882;2023-04-06T19:48:31;-2.90;99.90
11385;DHT22;5747;56.748;13.882;2023-04-06T19:50:59;-3.00;99.90
11385;DHT22;5747;56.748;13.882;2023-04-06T19:53:29;-3.00;99.90
11385;DHT22;5747;56.748;13.882;2023-04-06T19:55:57;-3.00;99.90
11385;DHT22;5747;56.748;13.882;2023-04-06T19:58:25;-3.00;99.90
11385;DHT22;5747;56.748;13.882;2023-04-06T20:00:53;-3.00;99.90
11385;DHT22;5747;56.748;13.882;2023-04-06T20:03:21;-3.00;99.90
11385;DHT22;5747;56.748;13.882;2023-04-06T20:05:49;-3.10;99.90
11385;DHT22;5747;56.748;13.882;2023-04-06T20:08:17;-3.10;99.90
11385;DHT22;5747;56.748;13.882;2023-04-06T20:10:47;-3.10;99.90
11385;DHT22;5747;56.748;13.882;2023-04-06T20:13:15;-3.10;99.90
11385;DHT22;5747;56.748;13.882;2023-04-06T20:15:43;-3.10;99.90
11385;DHT22;5747;56.748;13.882;2023-04-06T20:18:11;-3.10;99.90
11385;DHT22;5747;56.748;13.882;2023-04-06T20:20:39;-3.10;99.90
11385;DHT22;5747;56.748;13.882;2023-04-06T20:23:07;-3.00;99.90
11385;DHT22;5747;56.748;13.882;2023-04-06T20:25:35;-3.00;99.90
11385;DHT22;5747;56.748;13.882;2023-04-06T20:28:05;-2.90;99.90
11385;DHT22;5747;56.748;13.882;2023-04-06T20:30:33;-2.90;99.90
11385;DHT22;5747;56.748;13.882;2023-04-06T20:33:01;-3.00;99.90
11385;DHT22;5747;56.748;13.882;2023-04-06T20:35:29;-3.10;99.90
11385;DHT22;5747;56.748;13.882;2023-04-06T20:37:57;-3.20;99.90
11385;DHT22;5747;56.748;13.882;2023-04-06T20:40:26;-3.30;99.90
11385;DHT22;5747;56.748;13.882;2023-04-06T20:42:54;-3.30;99.90
11385;DHT22;5747;56.748;13.882;2023-04-06T20:45:24;-3.40;99.90
11385;DHT22;5747;56.748;13.882;2023-04-06T20:47:52;-3.40;99.90
11385;DHT22;5747;56.748;13.882;2023-04-06T20:50:20;-3.50;99.90
11385;DHT22;5747;56.748;13.882;2023-04-06T20:52:49;-3.50;99.90
11385;DHT22;5747;56.748;13.882;2023-04-06T20:55:17;-3.60;99.90
11385;DHT22;5747;56.748;13.882;2023-04-06T20:57:45;-3.60;99.90
11385;DHT22;5747;56.748;13.882;2023-04-06T21:00:13;-3.60;99.90
11385;DHT22;5747;56.748;13.882;2023-04-06T21:02:44;-3.60;99.90
11385;DHT22;5747;56.748;13.882;2023-04-06T21:05:12;-3.60;99.90
11385;DHT22;5747;56.748;13.882;2023-04-06T21:07:40;-3.60;99.90
11385;DHT22;5747;56.748;13.882;2023-04-06T21:10:09;-3.50;99.90
11385;DHT22;5747;56.748;13.882;2023-04-06T21:12:37;-3.50;99.90
11385;DHT22;5747;56.748;13.882;2023-04-06T21:15:06;-3.60;99.90
11385;DHT22;5747;56.748;13.882;2023-04-06T21:17:35;-3.50;99.90
11385;DHT22;5747;56.748;13.882;2023-04-06T21:20:06;-3.50;99.90
11385;DHT22;5747;56.748;13.882;2023-04-06T21:22:35;-3.40;99.90
11385;DHT22;5747;56.748;13.882;2023-04-06T21:25:03;-3.40;99.90
11385;DHT22;5747;56.748;13.882;2023-04-06T21:27:31;-3.50;99.90
11385;DHT22;5747;56.748;13.882;2023-04-06T21:29:59;-3.50;99.90
11385;DHT22;5747;56.748;13.882;2023-04-06T21:32:28;-3.60;99.90
11385;DHT22;5747;56.748;13.882;2023-04-06T21:34:56;-3.60;99.90
11385;DHT22;5747;56.748;13.882;2023-04-06T21:37:25;-3.50;99.90
11385;DHT22;5747;56.748;13.882;2023-04-06T21:39:53;-3.50;99.90
11385;DHT22;5747;56.748;13.882;2023-04-06T21:42:23;-3.40;99.90
11385;DHT22;5747;56.748;13.882;2023-04-06T21:44:51;-3.30;99.90
11385;DHT22;5747;56.748;13.882;2023-04-06T21:47:20;-3.30;99.90
11385;DHT22;5747;56.748;13.882;2023-04-06T21:49:48;-3.30;99.90
11385;DHT22;5747;56.748;13.882;2023-04-06T21:52:16;-3.50;99.90
11385;DHT22;5747;56.748;13.882;2023-04-06T21:54:45;-3.60;99.90
11385;DHT22;5747;56.748;13.882;2023-04-06T21:57:13;-3.60;99.90
11385;DHT22;5747;56.748;13.882;2023-04-06T21:59:41;-3.60;99.90
11385;DHT22;5747;56.748;13.882;2023-04-06T22:02:09;-3.60;99.90
11385;DHT22;5747;56.748;13.882;2023-04-06T22:04:37;-3.60;99.90
11385;DHT22;5747;56.748;13.882;2023-04-06T22:07:05;-3.50;99.90
11385;DHT22;5747;56.748;13.882;2023-04-06T22:09:33;-3.50;99.90
11385;DHT22;5747;56.748;13.882;2023-04-06T22:12:03;-3.50;99.90
11385;DHT22;5747;56.748;13.882;2023-04-06T22:14:31;-3.50;99.90
11385;DHT22;5747;56.748;13.882;2023-04-06T22:16:59;-3.50;99.90
11385;DHT22;5747;56.748;13.882;2023-04-06T22:19:27;-3.50;99.90
11385;DHT22;5747;56.748;13.882;2023-04-06T22:21:56;-3.50;99.90
11385;DHT22;5747;56.748;13.882;2023-04-06T22:24:24;-3.50;99.90
11385;DHT22;5747;56.748;13.882;2023-04-06T22:26:52;-3.60;99.90
11385;DHT22;5747;56.748;13.882;2023-04-06T22:29:22;-3.70;99.90
11385;DHT22;5747;56.748;13.882;2023-04-06T22:31:50;-3.70;99.90
11385;DHT22;5747;56.748;13.882;2023-04-06T22:34:18;-3.70;99.90
11385;DHT22;5747;56.748;13.882;2023-04-06T22:36:46;-3.70;99.90
11385;DHT22;5747;56.748;13.882;2023-04-06T22:39:14;-3.80;99.90
11385;DHT22;5747;56.748;13.882;2023-04-06T22:41:42;-3.90;99.90
11385;DHT22;5747;56.748;13.882;2023-04-06T22:44:11;-3.90;99.90
11385;DHT22;5747;56.748;13.882;2023-04-06T22:46:40;-4.00;99.90
11385;DHT22;5747;56.748;13.882;2023-04-06T22:49:08;-4.00;99.90
11385;DHT22;5747;56.748;13.882;2023-04-06T22:51:36;-4.00;99.90
11385;DHT22;5747;56.748;13.882;2023-04-06T22:54:07;-4.10;99.90
11385;DHT22;5747;56.748;13.882;2023-04-06T22:56:35;-4.20;99.90
11385;DHT22;5747;56.748;13.882;2023-04-06T22:59:03;-4.20;99.90
11385;DHT22;5747;56.748;13.882;2023-04-06T23:01:31;-4.20;99.90
11385;DHT22;5747;56.748;13.882;2023-04-06T23:04:00;-4.20;99.90
11385;DHT22;5747;56.748;13.882;2023-04-06T23:06:28;-4.20;99.90
11385;DHT22;5747;56.748;13.882;2023-04-06T23:08:57;-4.20;99.90
11385;DHT22;5747;56.748;13.882;2023-04-06T23:11:25;-4.20;99.90
11385;DHT22;5747;56.748;13.882;2023-04-06T23:13:53;-4.20;99.90
11385;DHT22;5747;56.748;13.882;2023-04-06T23:16:21;-4.30;99.90
11385;DHT22;5747;56.748;13.882;2023-04-06T23:18:50;-4.40;99.90
11385;DHT22;5747;56.748;13.882;2023-04-06T23:21:19;-4.40;99.90
11385;DHT22;5747;56.748;13.882;2023-04-06T23:23:47;-4.30;99.90
11385;DHT22;5747;56.748;13.882;2023-04-06T23:26:15;-4.30;99.90
11385;DHT22;5747;56.748;13.882;2023-04-06T23:28:43;-4.20;99.90
11385;DHT22;5747;56.748;13.882;2023-04-06T23:31:11;-4.20;99.90
11385;DHT22;5747;56.748;13.882;2023-04-06T23:33:39;-4.20;99.90
11385;DHT22;5747;56.748;13.882;2023-04-06T23:36:08;-4.20;99.90
11385;DHT22;5747;56.748;13.882;2023-04-06T23:38:37;-4.30;99.90
11385;DHT22;5747;56.748;13.882;2023-04-06T23:41:05;-4.30;99.90
11385;DHT22;5747;56.748;13.882;2023-04-06T23:43:33;-4.30;99.90
11385;DHT22;5747;56.748;13.882;2023-04-06T23:46:01;-4.40;99.90
11385;DHT22;5747;56.748;13.882;2023-04-06T23:48:29;-4.40;99.90
11385;DHT22;5747;56.748;13.882;2023-04-06T23:50:57;-4.50;99.90
11385;DHT22;5747;56.748;13.882;2023-04-06T23:53:25;-4.60;99.90
11385;DHT22;5747;56.748;13.882;2023-04-06T23:55:55;-4.60;99.90
11385;DHT22;5747;56.748;13.882;2023-04-06T23:58:23;-4.60;99.90
